Time;durP1;ratioP1;P1;durP2;ratioP2;P2;SDS_P1;SDS_P2;PMS_P1;PMS_P2;Temp;Humidity;BMP_temperature;BMP_pressure;BME280_temperature;BME280_humidity;BME280_pressure;Samples;Min_cycle;Max_cycle;Signal;HPM_P1;HPM_P2
2021/11/08 00:02:01;;;;;;;22.50;10.93;;;;;;;5.59;71.45;98367.19;5048077;28;20151;-64
2021/11/08 00:04:27;;;;;;;20.58;10.30;;;;;;;5.59;70.82;98368.00;5049336;28;20025;-63
2021/11/08 00:06:52;;;;;;;25.17;12.02;;;;;;;5.57;71.38;98372.91;5046314;28;20401;-64
2021/11/08 00:09:18;;;;;;;27.02;12.77;;;;;;;5.55;71.90;98377.78;5047796;28;20029;-64
2021/11/08 00:11:45;;;;;;;24.05;11.02;;;;;;;5.55;71.19;98382.41;5047712;28;20029;-65
2021/11/08 00:14:14;;;;;;;25.85;12.05;;;;;;;5.52;71.37;98381.03;5047314;28;20028;-65
2021/11/08 00:17:05;;;;;;;26.60;12.83;;;;;;;5.49;71.26;98379.66;5047969;28;20032;-65
2021/11/08 00:19:55;;;;;;;22.75;10.80;;;;;;;5.48;71.77;98372.59;5046430;28;20021;-66
2021/11/08 00:22:16;;;;;;;26.65;11.15;;;;;;;5.45;71.71;98380.47;5047759;28;20374;-66
2021/11/08 00:24:47;;;;;;;22.15;9.48;;;;;;;5.40;71.78;98380.44;5047148;28;20146;-65
2021/11/08 00:27:12;;;;;;;20.30;9.70;;;;;;;5.35;71.60;98392.94;5047724;28;20021;-65
2021/11/08 00:29:37;;;;;;;21.50;11.13;;;;;;;5.32;71.70;98389.91;5047546;28;20048;-65
2021/11/08 00:32:06;;;;;;;19.70;10.27;;;;;;;5.27;71.19;98387.97;5048020;28;20396;-66
2021/11/08 00:34:31;;;;;;;20.05;10.25;;;;;;;5.23;71.65;98395.03;5046341;28;20110;-66
2021/11/08 00:36:57;;;;;;;19.70;9.05;;;;;;;5.16;71.63;98389.81;5046811;28;20033;-66
2021/11/08 00:39:23;;;;;;;18.95;9.35;;;;;;;5.13;71.63;98393.06;5045931;28;20060;-66
2021/11/08 00:41:49;;;;;;;15.38;8.65;;;;;;;5.10;71.67;98387.31;5049032;28;20749;-67
2021/11/08 00:44:14;;;;;;;16.23;9.13;;;;;;;5.09;72.10;98397.38;5049171;28;20028;-66
2021/11/08 00:46:39;;;;;;;15.93;9.05;;;;;;;5.05;71.79;98388.94;5046958;28;20021;-66
2021/11/08 00:49:06;;;;;;;14.98;8.88;;;;;;;5.05;71.59;98393.56;5046487;28;20167;-66
2021/11/08 00:51:35;;;;;;;17.23;9.18;;;;;;;5.01;71.88;98393.28;5048670;28;20048;-66
2021/11/08 00:54:01;;;;;;;17.38;9.73;;;;;;;4.99;71.76;98397.31;5050658;28;20115;-66
2021/11/08 00:56:27;;;;;;;18.02;9.77;;;;;;;4.92;71.95;98392.91;5051608;28;20183;-65
2021/11/08 00:58:52;;;;;;;14.07;8.68;;;;;;;4.89;71.89;98400.78;5053122;28;20635;-67
2021/11/08 01:01:22;;;;;;;14.52;10.05;;;;;;;4.87;72.45;98405.66;5050978;28;20074;-66
2021/11/08 01:03:48;;;;;;;20.00;11.13;;;;;;;4.83;71.83;98399.94;5050834;28;20039;-67
2021/11/08 01:06:16;;;;;;;17.00;9.75;;;;;;;4.77;71.33;98401.78;5051050;28;20029;-66
2021/11/08 01:08:42;;;;;;;16.23;9.95;;;;;;;4.74;72.18;98407.72;5049676;28;20473;-66
2021/11/08 01:11:09;;;;;;;16.15;11.23;;;;;;;4.72;72.87;98406.34;5050346;28;20036;-66
2021/11/08 01:13:35;;;;;;;18.27;9.57;;;;;;;4.70;71.81;98405.78;5048467;28;20025;-66
2021/11/08 01:16:01;;;;;;;18.13;10.27;;;;;;;4.68;72.69;98406.06;5052293;28;20029;-66
2021/11/08 01:18:26;;;;;;;13.98;8.65;;;;;;;4.66;72.70;98413.66;5051744;28;20036;-66
2021/11/08 01:20:52;;;;;;;17.10;10.80;;;;;;;4.65;72.72;98417.44;5051662;28;20552;-66
2021/11/08 01:23:22;;;;;;;17.75;9.88;;;;;;;4.67;72.64;98412.59;5051704;28;20083;-66
2021/11/08 01:25:57;;;;;;;20.65;10.27;;;;;;;4.67;72.49;98420.72;5051841;28;20025;-66
2021/11/08 01:28:31;;;;;;;15.82;9.95;;;;;;;4.69;72.63;98425.88;5051167;28;20033;-66
2021/11/08 01:30:57;;;;;;;15.95;9.27;;;;;;;4.70;73.10;98424.81;5052152;28;20025;-67
2021/11/08 01:33:24;;;;;;;18.55;9.93;;;;;;;4.71;73.02;98427.25;5051621;28;20455;-66
2021/11/08 01:41:27;;;;;;;20.67;10.13;;;;;;;4.80;73.16;98435.78;5034353;28;20047;-67
2021/11/08 01:43:53;;;;;;;34.55;15.43;;;;;;;4.83;73.52;98437.97;5051680;28;20162;-67
2021/11/08 01:46:20;;;;;;;28.85;15.73;;;;;;;4.86;72.79;98439.34;5050745;28;20592;-67
2021/11/08 01:48:46;;;;;;;27.52;14.88;;;;;;;4.90;73.16;98435.84;5048859;28;20499;-67
2021/11/08 01:51:12;;;;;;;26.20;14.73;;;;;;;4.94;73.11;98444.31;5050253;28;20021;-67
2021/11/08 01:53:40;;;;;;;23.10;13.10;;;;;;;4.99;73.33;98449.78;5051620;28;20075;-66
2021/11/08 01:56:06;;;;;;;13.88;9.07;;;;;;;5.03;73.34;98447.34;5051811;28;20481;-66
2021/11/08 01:58:33;;;;;;;15.00;9.68;;;;;;;5.10;73.85;98447.13;5049928;28;20024;-66
2021/11/08 02:00:59;;;;;;;15.60;9.95;;;;;;;5.14;73.56;98450.97;5051515;28;20102;-67
2021/11/08 02:03:25;;;;;;;15.10;9.38;;;;;;;5.16;73.47;98455.09;5049772;28;20498;-66
2021/11/08 02:05:52;;;;;;;13.63;8.20;;;;;;;5.21;73.72;98454.28;5050117;28;20052;-66
2021/11/08 02:08:18;;;;;;;13.93;8.40;;;;;;;5.24;73.88;98461.94;5050892;28;20496;-66
2021/11/08 02:10:46;;;;;;;13.25;8.35;;;;;;;5.29;73.98;98466.59;5051323;28;20033;-66
2021/11/08 02:13:12;;;;;;;12.60;8.25;;;;;;;5.31;73.41;98470.69;5051189;28;20025;-66
2021/11/08 02:15:39;;;;;;;12.15;8.52;;;;;;;5.34;73.91;98467.44;5051080;28;20074;-66
2021/11/08 02:18:07;;;;;;;13.90;8.35;;;;;;;5.35;73.32;98460.91;5050928;28;20025;-66
2021/11/08 02:20:35;;;;;;;12.15;8.15;;;;;;;5.39;73.59;98474.00;5051270;28;20017;-66
2021/11/08 02:23:06;;;;;;;11.38;7.30;;;;;;;5.43;73.69;98480.56;5051168;28;20404;-66
2021/11/08 02:25:36;;;;;;;12.63;7.60;;;;;;;5.48;73.71;98472.44;5051377;28;20021;-66
2021/11/08 02:28:03;;;;;;;11.65;7.60;;;;;;;5.49;73.36;98465.91;5051357;28;20484;-66
2021/11/08 02:30:31;;;;;;;12.23;7.78;;;;;;;5.51;73.75;98474.59;5051337;28;20075;-66
2021/11/08 02:32:59;;;;;;;10.07;7.75;;;;;;;5.49;73.05;98465.91;5051331;28;20035;-66
2021/11/08 02:35:25;;;;;;;13.65;7.28;;;;;;;5.50;73.68;98476.53;5048623;28;20083;-67
2021/11/08 02:37:52;;;;;;;13.43;9.05;;;;;;;5.50;73.22;98481.16;5050707;28;20037;-66
2021/11/08 02:40:22;;;;;;;13.40;8.50;;;;;;;5.52;73.41;98489.84;5051159;28;20481;-67
2021/11/08 02:42:50;;;;;;;12.05;6.75;;;;;;;5.51;73.39;98482.75;5051308;28;20029;-67
2021/11/08 02:45:20;;;;;;;10.68;7.28;;;;;;;5.52;73.21;98476.25;5051461;28;20385;-66
2021/11/08 02:47:48;;;;;;;9.30;6.45;;;;;;;5.51;72.86;98485.47;5051005;28;20052;-66
2021/11/08 02:50:15;;;;;;;10.40;7.40;;;;;;;5.49;72.57;98479.50;5050502;28;20037;-66
2021/11/08 02:52:43;;;;;;;9.10;7.03;;;;;;;5.46;73.01;98490.91;5050981;28;20028;-67
2021/11/08 02:55:10;;;;;;;9.32;6.60;;;;;;;5.46;72.62;98488.19;5050821;28;20028;-66
2021/11/08 02:57:37;;;;;;;9.13;6.32;;;;;;;5.43;72.73;98486.00;5050018;28;20040;-67
2021/11/08 03:00:10;;;;;;;9.93;6.72;;;;;;;5.45;73.25;98478.41;5050668;28;20033;-67
2021/11/08 03:02:38;;;;;;;9.85;6.82;;;;;;;5.45;72.41;98481.91;5050702;28;20025;-66
2021/11/08 03:05:06;;;;;;;10.77;6.40;;;;;;;5.46;72.68;98486.28;5050440;28;20116;-67
2021/11/08 03:07:36;;;;;;;9.75;6.55;;;;;;;5.47;73.01;98485.19;5050371;28;20033;-67
2021/11/08 03:10:04;;;;;;;;;;;;;;;5.50;72.79;98494.75;5050951;28;20021;-67
2021/11/08 03:12:33;;;;;;;13.07;7.47;;;;;;;5.49;72.60;98487.69;5050380;28;20011;-66
2021/11/08 03:17:28;;;;;;;10.05;7.22;;;;;;;5.48;73.01;98491.47;5048674;28;20055;-67
2021/11/08 03:19:53;;;;;;;12.13;7.53;;;;;;;5.46;72.45;98489.00;5051005;28;20036;-67
2021/11/08 03:22:25;;;;;;;12.00;7.32;;;;;;;5.46;72.28;98485.47;5050235;28;20025;-67
2021/11/08 03:24:55;;;;;;;10.15;6.93;;;;;;;5.43;72.51;98489.53;5049920;28;20036;-67
2021/11/08 03:27:48;;;;;;;12.05;7.57;;;;;;;5.40;72.13;98486.53;5049909;28;20033;-66
2021/11/08 03:30:19;;;;;;;11.55;7.80;;;;;;;5.40;72.80;98483.81;5050232;28;20033;-66
2021/11/08 03:32:45;;;;;;;11.55;7.07;;;;;;;5.39;72.30;98490.31;5049940;28;20120;-67
2021/11/08 03:35:13;;;;;;;11.13;6.88;;;;;;;5.32;72.00;98496.78;5050194;28;20052;-67
2021/11/08 03:37:42;;;;;;;12.98;7.80;;;;;;;5.25;72.38;98506.28;5049460;28;20155;-67
2021/11/08 03:40:32;;;;;;;12.85;7.82;;;;;;;5.16;72.14;98501.31;5049844;28;20025;-67
2021/11/08 03:43:00;;;;;;;11.55;7.80;;;;;;;5.13;72.52;98509.13;5049089;28;20190;-67
2021/11/08 03:45:28;;;;;;;10.27;7.57;;;;;;;5.14;72.10;98499.91;5048103;28;20083;-67
2021/11/08 03:47:54;;;;;;;11.18;7.28;;;;;;;5.15;72.25;98506.97;5049088;28;20045;-67
2021/11/08 03:50:21;;;;;;;9.77;7.30;;;;;;;5.19;72.54;98495.34;5049601;28;20112;-67
2021/11/08 03:52:47;;;;;;;11.52;7.13;;;;;;;5.24;72.49;98497.28;5048825;28;20114;-66
2021/11/08 03:55:13;;;;;;;10.90;7.65;;;;;;;5.29;72.41;98502.75;5050122;28;20033;-66
2021/11/08 03:57:39;;;;;;;13.57;7.00;;;;;;;5.34;72.09;98504.69;5049213;28;20029;-66
2021/11/08 04:00:08;;;;;;;11.23;7.43;;;;;;;5.38;72.12;98502.28;5048548;28;20025;-67
2021/11/08 04:02:33;;;;;;;10.85;6.78;;;;;;;5.42;72.59;98497.97;5049680;28;20067;-67
2021/11/08 04:05:01;;;;;;;11.68;7.07;;;;;;;5.42;72.04;98501.47;5049529;28;20060;-67
2021/11/08 04:07:26;;;;;;;8.77;6.28;;;;;;;5.46;72.00;98509.97;5049255;28;20025;-68
2021/11/08 04:09:52;;;;;;;12.05;7.30;;;;;;;5.46;71.95;98507.25;5049882;28;20078;-67
2021/11/08 04:12:18;;;;;;;10.90;6.63;;;;;;;5.47;71.71;98508.88;5049768;28;20056;-68
2021/11/08 04:14:44;;;;;;;13.38;6.80;;;;;;;5.47;71.99;98515.13;5049866;28;20029;-67
2021/11/08 04:17:10;;;;;;;14.65;7.07;;;;;;;5.51;72.16;98507.25;5049686;28;20037;-67
2021/11/08 04:19:36;;;;;;;12.13;7.50;;;;;;;5.53;71.91;98509.72;5050319;28;20048;-67
2021/11/08 04:22:02;;;;;;;11.68;6.78;;;;;;;5.57;71.92;98511.66;5049408;28;20473;-67
2021/11/08 04:24:29;;;;;;;14.50;7.70;;;;;;;5.59;72.28;98519.56;5049434;28;20108;-67
2021/11/08 04:26:55;;;;;;;12.25;7.45;;;;;;;5.61;71.71;98520.13;5050393;28;20082;-66
2021/11/08 04:29:22;;;;;;;12.98;7.18;;;;;;;5.61;71.85;98514.69;5053281;28;20032;-67
2021/11/08 04:31:48;;;;;;;44.63;21.42;;;;;;;5.63;72.13;98515.25;5053268;28;20029;-67
2021/11/08 04:34:24;;;;;;;17.92;9.80;;;;;;;5.65;71.93;98521.25;5053350;28;20083;-67
2021/11/08 04:42:48;;;;;;;11.65;6.40;;;;;;;5.65;71.70;98516.59;5053050;28;20083;-67
2021/11/08 04:47:57;;;;;;;11.98;6.88;;;;;;;5.60;71.49;98530.16;5052586;28;20481;-67
2021/11/08 05:23:49;;;;;;;12.35;7.20;;;;;;;5.58;71.73;98550.56;5050158;28;20040;-66
2021/11/08 05:30:33;;;;;;;15.70;8.13;;;;;;;5.54;72.16;98552.97;5050346;28;20277;-66
2021/11/08 05:32:59;;;;;;;11.68;6.63;;;;;;;5.53;71.75;98555.97;5050831;28;20075;-67
2021/11/08 05:35:25;;;;;;;11.55;7.05;;;;;;;5.54;71.83;98561.13;5052400;28;20519;-66
2021/11/08 05:37:51;;;;;;;10.75;6.70;;;;;;;5.57;72.27;98573.41;5050950;28;20027;-66
2021/11/08 05:40:38;;;;;;;11.05;6.72;;;;;;;5.58;71.92;98570.41;5052194;28;20108;-66
2021/11/08 05:43:06;;;;;;;13.13;7.38;;;;;;;5.58;71.95;98573.13;5052135;28;20036;-66
2021/11/08 05:45:34;;;;;;;13.25;7.20;;;;;;;5.58;72.23;98570.41;5049761;28;20028;-66
2021/11/08 05:48:05;;;;;;;13.73;7.80;;;;;;;5.58;72.00;98578.59;5043245;28;20029;-64
2021/11/08 05:50:31;;;;;;;16.92;10.55;;;;;;;5.59;71.91;98574.78;5044224;28;20052;-65
2021/11/08 05:52:57;;;;;;;19.05;12.48;;;;;;;5.61;72.02;98596.31;5051784;28;20040;-65
2021/11/08 05:56:15;;;;;;;17.58;10.45;;;;;;;5.61;71.83;98601.75;5051616;28;20040;-65
2021/11/08 06:50:29;;;;;;;16.17;7.53;;;;;;;5.89;71.87;98679.53;5047990;28;20119;-66
2021/11/08 06:53:01;;;;;;;11.82;7.07;;;;;;;5.95;71.60;98675.75;5049837;28;20135;-64
2021/11/08 06:55:27;;;;;;;11.90;7.00;;;;;;;5.97;70.90;98691.84;5048607;28;20055;-65
2021/11/08 06:58:00;;;;;;;10.77;5.93;;;;;;;5.98;70.90;98690.75;5049536;28;20098;-64
2021/11/08 07:00:26;;;;;;;13.32;6.65;;;;;;;6.00;70.69;98696.81;5050251;28;20047;-64
2021/11/08 07:02:52;;;;;;;10.73;6.30;;;;;;;6.01;71.08;98697.59;5049062;28;20048;-64
2021/11/08 07:05:17;;;;;;;10.73;6.03;;;;;;;6.03;70.30;98695.44;5049324;28;20029;-64
2021/11/08 07:07:43;;;;;;;16.20;9.32;;;;;;;6.06;70.56;98697.66;5049502;28;20029;-65
2021/11/08 07:10:08;;;;;;;13.00;8.60;;;;;;;6.07;70.75;98707.47;5050998;28;20025;-65
2021/11/08 07:12:35;;;;;;;14.43;8.02;;;;;;;6.11;70.78;98703.13;5048905;28;20078;-65
2021/11/08 07:15:01;;;;;;;15.32;8.85;;;;;;;6.15;70.33;98706.97;5050630;28;20031;-65
2021/11/08 07:17:26;;;;;;;18.88;8.75;;;;;;;6.17;70.16;98704.81;5049400;28;20033;-64
2021/11/08 07:19:52;;;;;;;14.43;7.93;;;;;;;6.20;70.33;98714.38;5051483;28;20044;-65
2021/11/08 07:22:17;;;;;;;18.85;8.95;;;;;;;6.19;69.92;98710.00;5048485;28;20041;-64
2021/11/08 07:24:43;;;;;;;25.02;11.63;;;;;;;6.21;70.07;98713.28;5049182;28;20033;-64
2021/11/08 07:27:08;;;;;;;70.25;30.00;;;;;;;6.25;70.00;98715.25;5049334;28;20238;-63
2021/11/08 07:29:37;;;;;;;22.08;10.45;;;;;;;6.24;69.50;98719.03;5048737;28;20047;-64
2021/11/08 07:32:06;;;;;;;20.13;11.88;;;;;;;6.23;70.10;98714.69;5048958;28;20032;-64
2021/11/08 07:34:32;;;;;;;20.05;9.82;;;;;;;6.24;69.74;98713.59;5049118;28;20071;-64
2021/11/08 07:36:58;;;;;;;32.85;15.30;;;;;;;6.27;70.23;98705.97;5050558;28;20029;-64
2021/11/08 07:39:24;;;;;;;27.42;15.02;;;;;;;6.31;69.47;98713.34;5051986;28;20062;-64
2021/11/08 07:41:50;;;;;;;36.90;16.15;;;;;;;6.30;69.46;98714.44;5045265;28;20028;-65
2021/11/08 07:44:16;;;;;;;29.13;14.02;;;;;;;6.33;69.64;98702.19;5047133;28;20041;-66
2021/11/08 07:46:41;;;;;;;32.25;16.40;;;;;;;6.34;69.05;98709.28;5046314;28;20096;-66
2021/11/08 07:49:07;;;;;;;28.85;16.98;;;;;;;6.35;69.26;98703.59;5048191;28;20037;-64
2021/11/08 07:51:32;;;;;;;26.38;15.10;;;;;;;6.39;69.40;98703.88;5049131;28;20495;-66
2021/11/08 07:53:58;;;;;;;41.33;26.70;;;;;;;6.45;69.03;98712.91;5049182;28;20036;-65
2021/11/08 07:56:24;;;;;;;44.00;25.42;;;;;;;6.50;69.07;98721.94;5047499;28;20017;-64
2021/11/08 07:58:49;;;;;;;57.67;28.88;;;;;;;6.53;68.86;98715.97;5048804;28;20029;-65
2021/11/08 08:01:16;;;;;;;30.63;14.18;;;;;;;6.58;68.55;98720.59;5049290;28;20032;-66
2021/11/08 08:03:43;;;;;;;27.83;12.02;;;;;;;6.62;68.65;98727.16;5052899;28;20029;-66
2021/11/08 08:06:09;;;;;;;28.23;11.43;;;;;;;6.66;68.33;98728.28;5052311;28;20032;-65
2021/11/08 08:08:35;;;;;;;23.02;10.05;;;;;;;6.75;68.96;98733.25;5051084;28;20037;-64
2021/11/08 08:11:03;;;;;;;34.38;15.00;;;;;;;6.83;68.86;98719.94;5055927;28;20033;-65
2021/11/08 08:13:30;;;;;;;28.95;15.23;;;;;;;6.96;68.61;98726.00;5057897;28;20215;-65
2021/11/08 08:15:59;;;;;;;29.60;13.10;;;;;;;7.06;68.43;98728.78;5057622;28;20702;-65
2021/11/08 08:18:32;;;;;;;22.27;12.18;;;;;;;7.17;67.91;98728.78;5057260;28;20040;-67
2021/11/08 08:20:58;;;;;;;22.70;11.48;;;;;;;7.22;67.06;98732.38;5053302;28;20063;-67
2021/11/08 08:23:24;;;;;;;22.48;10.00;;;;;;;7.23;66.59;98733.19;5052166;28;20064;-68
2021/11/08 08:25:51;;;;;;;23.17;9.85;;;;;;;7.27;67.03;98745.19;5052451;28;20025;-67
2021/11/08 08:28:17;;;;;;;23.48;9.82;;;;;;;7.30;66.25;98745.50;5044157;28;20274;-64
2021/11/08 08:30:43;;;;;;;25.88;10.85;;;;;;;7.34;66.35;98753.13;5049479;28;20492;-66
2021/11/08 08:33:08;;;;;;;19.50;9.23;;;;;;;7.38;66.31;98757.81;5049921;28;20041;-65
2021/11/08 08:35:39;;;;;;;20.75;9.00;;;;;;;7.40;66.00;98755.63;5050548;28;20024;-65
2021/11/08 08:38:07;;;;;;;19.50;8.20;;;;;;;7.44;65.07;98761.34;5048481;28;20378;-65
2021/11/08 08:40:32;;;;;;;20.73;8.73;;;;;;;7.48;65.41;98758.94;5051738;28;20029;-65
2021/11/08 08:42:58;;;;;;;18.88;7.43;;;;;;;7.55;65.07;98754.00;5050294;28;20033;-65
2021/11/08 08:45:23;;;;;;;19.73;7.68;;;;;;;7.64;65.26;98757.06;5051902;28;20439;-66
2021/11/08 08:47:48;;;;;;;20.13;8.55;;;;;;;7.74;65.48;98754.34;5050528;28;20382;-65
2021/11/08 08:50:14;;;;;;;19.73;9.18;;;;;;;7.84;65.20;98764.47;5051736;28;20040;-65
2021/11/08 08:52:40;;;;;;;15.80;7.60;;;;;;;7.97;65.32;98768.56;5050462;28;20021;-63
2021/11/08 08:55:06;;;;;;;16.27;5.63;;;;;;;8.10;64.68;98762.59;5050132;28;20373;-63
2021/11/08 08:57:32;;;;;;;17.25;8.57;;;;;;;8.22;63.63;98767.78;5049213;28;20083;-64
2021/11/08 08:59:57;;;;;;;15.18;5.47;;;;;;;8.28;63.07;98763.97;5050856;28;20021;-64
2021/11/08 09:02:22;;;;;;;17.35;5.10;;;;;;;8.33;63.66;98766.69;5051421;28;21295;-64
2021/11/08 09:04:48;;;;;;;10.38;3.80;;;;;;;8.37;62.16;98760.66;5051771;28;20021;-64
2021/11/08 09:07:15;;;;;;;10.00;3.80;;;;;;;8.34;60.72;98759.31;5050898;28;20492;-63
2021/11/08 09:09:42;;;;;;;8.27;3.25;;;;;;;8.32;59.32;98756.84;5048216;28;20033;-63
2021/11/08 09:12:08;;;;;;;10.57;3.22;;;;;;;8.35;60.02;98764.47;5048733;28;20032;-64
2021/11/08 09:14:34;;;;;;;9.20;2.70;;;;;;;8.45;61.39;98768.31;5050700;28;20029;-63
2021/11/08 09:17:02;;;;;;;7.32;3.20;;;;;;;8.54;58.97;98772.16;5050659;28;20032;-65
2021/11/08 09:19:28;;;;;;;8.02;3.40;;;;;;;8.60;58.81;98770.22;5053441;28;20117;-65
2021/11/08 09:21:53;;;;;;;7.50;3.00;;;;;;;8.59;59.04;98771.31;5049361;28;20037;-65
2021/11/08 09:24:22;;;;;;;6.57;2.78;;;;;;;8.57;59.24;98768.03;5046417;28;20044;-64
2021/11/08 09:26:48;;;;;;;8.55;3.63;;;;;;;8.55;58.14;98762.06;5046960;28;20033;-64
2021/11/08 09:29:14;;;;;;;7.47;3.00;;;;;;;8.54;58.33;98763.16;5044018;28;20049;-63
2021/11/08 09:31:39;;;;;;;7.95;2.67;;;;;;;8.48;57.89;98770.50;5049786;28;20064;-65
2021/11/08 09:34:08;;;;;;;6.68;2.83;;;;;;;8.44;57.37;98780.31;5047714;28;20041;-66
2021/11/08 09:36:36;;;;;;;7.13;2.65;;;;;;;8.38;57.94;98785.00;5050844;28;20033;-65
2021/11/08 09:39:05;;;;;;;8.13;2.90;;;;;;;8.30;57.97;98791.81;5050765;28;20083;-64
2021/11/08 09:41:34;;;;;;;8.35;2.53;;;;;;;8.27;58.09;98786.06;5051104;28;20029;-65
2021/11/08 09:44:03;;;;;;;5.63;2.45;;;;;;;8.25;58.29;98793.72;5051720;28;20086;-64
2021/11/08 09:46:31;;;;;;;7.68;2.70;;;;;;;8.22;58.59;98791.53;5051258;28;20119;-64
2021/11/08 09:48:58;;;;;;;7.05;2.72;;;;;;;8.28;58.65;98795.91;5050772;28;20035;-63
2021/11/08 09:51:25;;;;;;;11.05;4.10;;;;;;;8.41;58.96;98794.53;5050598;28;20025;-65
2021/11/08 09:53:51;;;;;;;11.65;3.92;;;;;;;8.57;58.96;98804.41;5050042;28;20512;-64
2021/11/08 09:56:16;;;;;;;9.02;3.80;;;;;;;8.67;58.83;98800.03;5051409;28;20033;-64
2021/11/08 09:58:42;;;;;;;8.02;3.30;;;;;;;8.73;58.55;98807.16;5051382;28;20536;-65
2021/11/08 10:01:12;;;;;;;13.10;4.10;;;;;;;8.84;58.32;98805.22;5051736;28;20024;-66
2021/11/08 10:03:38;;;;;;;13.13;4.63;;;;;;;8.93;58.92;98818.03;5050471;28;20496;-66
2021/11/08 10:06:05;;;;;;;8.40;3.03;;;;;;;8.99;57.47;98807.91;5051232;28;20120;-66
2021/11/08 10:08:36;;;;;;;6.60;2.70;;;;;;;9.04;57.55;98813.38;5049040;28;20082;-66
2021/11/08 10:11:06;;;;;;;10.07;3.53;;;;;;;9.06;57.81;98818.56;5050916;28;20029;-68
2021/11/08 10:13:32;;;;;;;10.60;3.20;;;;;;;9.04;57.16;98812.56;5049708;28;20465;-68
2021/11/08 10:16:02;;;;;;;8.00;2.40;;;;;;;8.97;57.96;98810.09;5050583;28;20029;-67
2021/11/08 10:18:28;;;;;;;8.38;3.08;;;;;;;8.97;57.97;98812.03;5044533;28;20764;-68
2021/11/08 10:21:07;;;;;;;5.60;2.13;;;;;;;8.96;57.29;98818.59;5043602;28;20970;-68
2021/11/08 10:23:33;;;;;;;4.15;1.90;;;;;;;8.94;57.66;98811.47;5043473;28;20159;-67
2021/11/08 10:25:58;;;;;;;8.30;2.58;;;;;;;9.00;58.23;98806.00;5048630;28;20025;-69
2021/11/08 10:28:27;;;;;;;8.80;3.83;;;;;;;9.07;57.82;98806.53;5048880;28;20491;-67
2021/11/08 10:31:02;;;;;;;3.90;2.03;;;;;;;9.07;57.36;98812.81;5046633;28;20507;-67
2021/11/08 10:33:31;;;;;;;5.53;2.70;;;;;;;9.06;56.94;98811.16;5048711;28;20045;-69
2021/11/08 10:36:02;;;;;;;7.97;3.38;;;;;;;9.08;57.30;98810.91;5045739;28;20033;-70
2021/11/08 10:38:31;;;;;;;14.57;6.57;;;;;;;9.08;58.36;98813.66;5047500;28;20075;-69
2021/11/08 10:41:11;;;;;;;10.35;3.50;;;;;;;9.07;57.93;98814.75;5045136;28;20056;-72
2021/11/08 10:43:46;;;;;;;9.88;3.58;;;;;;;9.03;57.73;98810.91;5048539;28;20029;-71
2021/11/08 10:46:21;;;;;;;7.28;3.20;;;;;;;8.97;57.86;98809.28;5050015;28;20513;-68
2021/11/08 10:48:58;;;;;;;13.93;4.03;;;;;;;8.92;58.01;98821.06;5048236;28;20116;-68
2021/11/08 10:51:27;;;;;;;12.10;4.13;;;;;;;8.88;57.87;98819.97;5049945;28;20036;-68
2021/11/08 10:54:01;;;;;;;17.52;5.18;;;;;;;8.78;58.44;98818.88;5048797;28;20025;-67
2021/11/08 10:56:35;;;;;;;18.27;6.80;;;;;;;8.80;58.84;98813.13;5049875;28;20051;-67
2021/11/08 10:59:04;;;;;;;12.43;5.20;;;;;;;8.78;58.71;98809.84;5050291;28;20499;-67
2021/11/08 11:01:36;;;;;;;14.02;4.70;;;;;;;8.77;58.18;98810.94;5051327;28;20029;-66
2021/11/08 11:04:05;;;;;;;18.75;6.60;;;;;;;8.76;58.33;98812.06;5050745;28;20029;-67
2021/11/08 11:06:46;;;;;;;12.30;4.53;;;;;;;8.79;58.60;98816.97;5050344;28;20025;-67
2021/11/08 11:09:21;;;;;;;11.52;4.80;;;;;;;8.78;58.99;98812.59;5049640;28;20094;-68
2021/11/08 11:12:09;;;;;;;15.98;6.22;;;;;;;8.75;59.25;98813.97;5049813;28;20032;-68
2021/11/08 11:14:39;;;;;;;9.65;4.15;;;;;;;8.74;59.67;98806.84;5049462;28;20024;-68
2021/11/08 11:17:09;;;;;;;7.95;4.03;;;;;;;8.74;59.48;98815.06;5049080;28;20036;-68
2021/11/08 11:19:36;;;;;;;10.23;4.50;;;;;;;8.76;59.11;98812.06;5048582;28;20033;-69
2021/11/08 11:22:07;;;;;;;10.18;3.78;;;;;;;8.82;59.40;98812.88;5047866;28;20064;-69
2021/11/08 11:24:48;;;;;;;16.60;5.88;;;;;;;8.84;59.67;98810.69;5049163;28;20036;-68
2021/11/08 11:27:25;;;;;;;60.65;23.05;;;;;;;8.87;59.17;98810.94;5046982;28;20033;-68
2021/11/08 11:29:52;;;;;;;8.90;3.92;;;;;;;8.90;58.83;98813.13;5049307;28;20025;-69
2021/11/08 11:32:25;;;;;;;8.70;3.70;;;;;;;8.89;59.15;98803.28;5051538;28;20079;-69
2021/11/08 11:34:51;;;;;;;9.32;3.92;;;;;;;8.90;58.62;98813.13;5049660;28;20424;-69
2021/11/08 11:37:20;;;;;;;13.68;5.10;;;;;;;8.91;58.02;98812.03;5050169;28;20031;-68
2021/11/08 11:39:45;;;;;;;5.38;2.50;;;;;;;8.93;58.34;98811.75;5050148;28;20036;-68
2021/11/08 11:42:11;;;;;;;9.48;2.92;;;;;;;8.97;58.31;98812.03;5049345;28;20032;-69
2021/11/08 11:44:37;;;;;;;7.53;3.15;;;;;;;9.02;58.06;98801.06;5047964;28;20063;-69
2021/11/08 11:47:16;;;;;;;4.72;2.05;;;;;;;9.10;58.09;98803.25;5050350;28;20121;-69
2021/11/08 11:49:43;;;;;;;7.90;2.88;;;;;;;9.09;58.02;98807.88;5050152;28;20044;-69
2021/11/08 11:52:09;;;;;;;5.07;2.30;;;;;;;9.04;57.69;98807.09;5049677;28;20029;-69
2021/11/08 11:54:35;;;;;;;5.45;2.40;;;;;;;9.00;57.70;98801.31;5050609;28;20465;-69
2021/11/08 11:57:01;;;;;;;13.02;4.45;;;;;;;8.99;58.59;98798.88;5049452;28;20552;-68
2021/11/08 11:59:27;;;;;;;7.78;3.28;;;;;;;9.01;58.42;98794.75;5049239;28;20029;-69
2021/11/08 12:01:53;;;;;;;5.38;2.67;;;;;;;9.03;58.29;98799.97;5050196;28;20025;-69
2021/11/08 12:04:19;;;;;;;3.92;2.00;;;;;;;9.02;57.79;98801.88;5048790;28;20028;-69
2021/11/08 12:06:47;;;;;;;9.73;4.82;;;;;;;9.01;58.02;98807.63;5049609;28;20025;-69
2021/11/08 12:09:16;;;;;;;12.75;4.93;;;;;;;9.01;58.35;98813.09;5049044;28;20025;-68
2021/11/08 12:11:47;;;;;;;12.35;4.65;;;;;;;8.94;59.37;98814.22;5042951;28;20029;-67
2021/11/08 12:14:26;;;;;;;18.35;7.22;;;;;;;8.92;58.78;98810.13;5046903;28;20120;-69
2021/11/08 12:17:14;;;;;;;6.68;2.83;;;;;;;8.84;59.94;98818.88;5048089;28;20159;-68
2021/11/08 12:19:42;;;;;;;8.35;2.72;;;;;;;8.82;60.19;98810.94;5042846;28;20033;-68
2021/11/08 12:22:21;;;;;;;8.13;2.78;;;;;;;8.79;59.61;98816.97;5046363;28;20021;-69
2021/11/08 12:25:11;;;;;;;7.70;3.78;;;;;;;8.79;60.36;98822.44;5045200;28;20035;-69
2021/11/08 12:27:49;;;;;;;13.27;6.70;;;;;;;8.76;60.54;98818.34;5047018;28;20033;-69
2021/11/08 12:30:19;;;;;;;6.75;3.33;;;;;;;8.71;60.89;98817.53;5046659;28;20025;-67
2021/11/08 12:32:56;;;;;;;6.15;2.95;;;;;;;8.67;60.83;98814.53;5046530;28;20434;-68
2021/11/08 12:35:37;;;;;;;6.28;2.80;;;;;;;8.68;60.82;98805.22;5044023;28;20045;-67
2021/11/08 12:38:21;;;;;;;8.90;4.78;;;;;;;8.69;61.30;98801.41;5045611;28;20543;-67
2021/11/08 12:40:48;;;;;;;24.70;12.10;;;;;;;8.77;61.44;98808.22;5043115;28;20485;-68
2021/11/08 12:43:28;;;;;;;34.05;16.15;;;;;;;8.86;61.29;98803.03;5044080;28;20108;-70
2021/11/08 12:45:54;;;;;;;21.67;9.15;;;;;;;8.86;61.39;98801.09;5048019;28;20415;-67
2021/11/08 12:48:19;;;;;;;19.80;8.07;;;;;;;8.86;61.66;98805.75;5049850;28;20539;-71
2021/11/08 12:50:49;;;;;;;13.65;5.18;;;;;;;8.94;61.68;98797.78;5052404;28;20021;-71
2021/11/08 12:53:28;;;;;;;15.02;5.72;;;;;;;9.09;62.22;98798.88;5051907;28;20033;-71
2021/11/08 12:56:07;;;;;;;8.57;3.70;;;;;;;9.18;61.20;98799.91;5050466;28;20044;-70
2021/11/08 12:58:44;;;;;;;17.90;6.70;;;;;;;9.22;61.37;98791.97;5049148;28;20091;-69
2021/11/08 13:01:14;;;;;;;8.52;4.60;;;;;;;9.22;61.87;98798.25;5050487;28;20035;-69
2021/11/08 13:03:41;;;;;;;15.38;7.78;;;;;;;9.28;61.35;98804.56;5049706;28;20027;-68
2021/11/08 13:06:09;;;;;;;10.93;5.35;;;;;;;9.31;61.72;98804.00;5049904;28;20036;-70
2021/11/08 13:08:35;;;;;;;29.90;13.88;;;;;;;9.28;61.32;98809.19;5050484;28;20389;-71
2021/11/08 13:11:11;;;;;;;12.05;5.93;;;;;;;9.24;60.90;98809.75;5050525;28;20477;-71
2021/11/08 13:13:57;;;;;;;9.05;3.70;;;;;;;9.19;61.17;98811.69;5048457;28;20028;-72
2021/11/08 13:16:40;;;;;;;9.52;3.97;;;;;;;9.15;61.16;98807.88;5048972;28;20024;-73
2021/11/08 13:19:12;;;;;;;10.73;4.38;;;;;;;9.17;61.19;98811.94;5050763;28;20032;-69
2021/11/08 13:21:38;;;;;;;7.65;3.40;;;;;;;9.18;61.22;98816.31;5051300;28;20465;-69
2021/11/08 13:24:06;;;;;;;5.43;2.88;;;;;;;9.13;60.79;98813.63;5050749;28;20044;-71
2021/11/08 13:26:33;;;;;;;4.30;2.60;;;;;;;9.06;61.27;98815.84;5050400;28;20695;-70
2021/11/08 13:29:00;;;;;;;3.45;1.85;;;;;;;9.00;61.22;98822.41;5048760;28;20044;-71